createdAt,value
2018-11-02T00:00:00.235Z,99980.23
2018-11-02T00:02:32.081Z,99988.22
2018-11-02T00:05:03.116Z,99983.41
2018-11-02T00:07:34.044Z,99999.16
2018-11-02T00:10:05.514Z,99998.06
2018-11-02T00:12:36.386Z,99998.70
2018-11-02T00:15:07.823Z,99995.41
2018-11-02T00:17:38.843Z,100001.14
2018-11-02T00:20:09.759Z,100014.52
2018-11-02T00:22:40.752Z,100008.45
2018-11-02T00:25:11.847Z,100009.83
2018-11-02T00:27:43.453Z,100028.01
2018-11-02T00:30:14.308Z,100026.92
2018-11-02T00:32:45.312Z,100022.89
2018-11-02T00:35:16.370Z,100031.11
2018-11-02T00:37:49.023Z,100033.97
2018-11-02T00:40:20.025Z,100035.38
2018-11-02T00:42:50.856Z,100034.88
2018-11-02T00:45:22.051Z,100038.62
2018-11-02T00:47:53.077Z,100028.78
2018-11-02T00:50:24.069Z,100038.47
2018-11-02T00:52:54.929Z,100030.47
2018-11-02T00:55:25.816Z,100030.47
2018-11-02T00:57:56.759Z,100023.10
2018-11-02T01:00:27.655Z,100019.56
2018-11-02T01:02:58.564Z,100002.95
2018-11-02T01:05:29.413Z,100005.66
2018-11-02T01:08:01.077Z,100015.59
2018-11-02T01:10:31.982Z,100020.81
2018-11-02T01:13:03.684Z,100028.17
2018-11-02T01:15:34.765Z,100027.00
2018-11-02T01:18:09.922Z,100037.41
2018-11-02T01:20:40.691Z,100040.56
2018-11-02T01:23:11.616Z,100049.02
2018-11-02T01:25:42.545Z,100068.79
2018-11-02T01:28:14.479Z,100062.75
2018-11-02T01:30:45.884Z,100066.88
2018-11-02T01:33:16.899Z,100061.74
2018-11-02T01:35:47.789Z,100069.19
2018-11-02T01:38:18.818Z,100085.15
2018-11-02T01:40:50.720Z,100092.06
2018-11-02T01:43:22.775Z,100092.38
2018-11-02T01:45:54.304Z,100086.41
2018-11-02T01:48:25.535Z,100092.06
2018-11-02T01:50:57.236Z,100100.83
2018-11-02T01:53:28.713Z,100097.87
2018-11-02T01:55:59.473Z,100092.23
2018-11-02T01:58:30.511Z,100103.23
2018-11-02T02:01:01.421Z,100089.73
2018-11-02T02:03:32.198Z,100095.55
2018-11-02T02:06:03.557Z,100106.87
2018-11-02T02:08:34.577Z,100113.91
2018-11-02T02:11:07.625Z,100111.73
2018-11-02T02:13:38.411Z,100110.82
2018-11-02T02:16:10.158Z,100124.53
2018-11-02T02:18:41.353Z,100122.27
2018-11-02T02:21:12.802Z,100130.27
2018-11-02T02:23:43.690Z,100121.19
2018-11-02T02:26:14.562Z,100114.36
2018-11-02T02:28:45.375Z,100133.53
2018-11-02T02:31:16.192Z,100131.59
2018-11-02T02:33:47.069Z,100132.49
2018-11-02T02:36:17.740Z,100130.17
2018-11-02T02:38:48.343Z,100131.13
2018-11-02T02:41:19.039Z,100139.95
2018-11-02T02:43:49.720Z,100140.81
2018-11-02T02:46:20.506Z,100137.00
2018-11-02T02:48:51.135Z,100150.04
2018-11-02T02:51:21.839Z,100144.91
2018-11-02T02:53:52.464Z,100144.08
2018-11-02T02:56:24.096Z,100151.98
2018-11-02T02:58:55.226Z,100148.41
2018-11-02T03:01:25.917Z,100171.65
2018-11-02T03:03:59.601Z,100184.61
2018-11-02T03:06:30.323Z,100174.06
2018-11-02T03:09:01.068Z,100191.41
2018-11-02T03:11:31.735Z,100182.88
2018-11-02T03:14:02.468Z,100193.59
2018-11-02T03:16:33.168Z,100192.35
2018-11-02T03:19:03.911Z,100195.38
2018-11-02T03:21:34.595Z,100213.25
2018-11-02T03:24:05.577Z,100188.13
2018-11-02T03:26:36.237Z,100205.88
2018-11-02T03:29:06.978Z,100206.25
2018-11-02T03:31:37.628Z,100208.22
2018-11-02T03:34:08.530Z,100214.78
2018-11-02T03:36:39.252Z,100208.97
2018-11-02T03:39:11.528Z,100216.89
2018-11-02T03:41:43.026Z,100216.33
2018-11-02T03:44:13.785Z,100219.28
2018-11-02T03:46:44.484Z,100237.16
2018-11-02T03:49:15.508Z,100224.39
2018-11-02T03:51:46.196Z,100239.78
2018-11-02T03:54:17.088Z,100262.46
2018-11-02T03:56:47.899Z,100268.97
2018-11-02T03:59:18.627Z,100269.95
2018-11-02T04:01:49.957Z,100263.49
2018-11-02T04:04:20.678Z,100278.92
2018-11-02T04:06:51.412Z,100282.22
2018-11-02T04:09:22.074Z,100285.38
2018-11-02T04:11:52.729Z,100288.59
2018-11-02T04:14:23.387Z,100291.23
2018-11-02T04:16:54.091Z,100289.99
2018-11-02T04:19:24.833Z,100293.28
2018-11-02T04:21:55.516Z,100295.59
2018-11-02T04:24:26.131Z,100300.68
2018-11-02T04:26:56.879Z,100319.77
2018-11-02T04:29:27.576Z,100314.05
2018-11-02T04:31:58.242Z,100335.94
2018-11-02T04:34:28.918Z,100325.70
2018-11-02T04:37:00.284Z,100340.88
2018-11-02T04:39:30.954Z,100342.94
2018-11-02T04:42:01.635Z,100354.91
2018-11-02T04:44:32.292Z,100351.17
2018-11-02T04:47:03.071Z,100357.28
2018-11-02T04:49:33.783Z,100361.75
2018-11-02T04:52:04.566Z,100365.84
2018-11-02T04:54:35.335Z,100372.03
2018-11-02T04:57:06.138Z,100367.29
2018-11-02T04:59:36.812Z,100380.38
2018-11-02T05:02:07.497Z,100378.46
2018-11-02T05:04:38.182Z,100387.67
2018-11-02T05:07:09.185Z,100402.23
2018-11-02T05:09:39.949Z,100406.78
2018-11-02T05:12:10.654Z,100415.70
2018-11-02T05:14:41.350Z,100422.66
2018-11-02T05:17:12.008Z,100433.22
2018-11-02T05:19:42.657Z,100443.19
2018-11-02T05:22:13.354Z,100451.63
2018-11-02T05:24:43.991Z,100446.75
2018-11-02T05:27:14.672Z,100455.30
2018-11-02T05:29:45.396Z,100470.48
2018-11-02T05:32:16.075Z,100475.60
2018-11-02T05:34:46.785Z,100478.30
2018-11-02T05:37:17.505Z,100495.83
2018-11-02T05:39:48.241Z,100494.34
2018-11-02T05:42:19.017Z,100493.12
2018-11-02T05:44:49.879Z,100498.05
2018-11-02T05:47:20.622Z,100497.03
2018-11-02T05:49:51.181Z,100508.17
2018-11-02T05:52:21.885Z,100515.83
2018-11-02T05:54:52.574Z,100523.67
2018-11-02T05:57:23.361Z,100520.36
2018-11-02T05:59:54.005Z,100531.74
2018-11-02T06:02:24.639Z,100535.87
2018-11-02T06:04:55.318Z,100543.23
2018-11-02T06:07:26.014Z,100552.83
2018-11-02T06:09:56.709Z,100556.45
2018-11-02T06:12:27.764Z,100561.94
2018-11-02T06:14:58.607Z,100562.86
2018-11-02T06:17:29.302Z,100560.33
2018-11-02T06:20:00.100Z,100556.26
2018-11-02T06:22:30.750Z,100574.23
2018-11-02T06:25:01.500Z,100562.70
2018-11-02T06:27:32.263Z,100583.52
2018-11-02T06:30:02.990Z,100579.67
2018-11-02T06:32:33.691Z,100580.89
2018-11-02T06:35:04.424Z,100593.73
2018-11-02T06:37:35.225Z,100602.36
2018-11-02T06:40:06.392Z,100614.97
2018-11-02T06:42:37.401Z,100618.12
2018-11-02T06:45:10.261Z,100630.52
2018-11-02T06:47:41.178Z,100633.00
2018-11-02T06:50:11.908Z,100643.91
2018-11-02T06:52:42.549Z,100647.10
2018-11-02T06:55:13.227Z,100655.34
2018-11-02T06:57:44.659Z,100672.42
2018-11-02T07:00:15.493Z,100661.77
2018-11-02T07:02:46.115Z,100669.74
2018-11-02T07:05:16.779Z,100681.42
2018-11-02T07:07:47.551Z,100687.56
2018-11-02T07:10:18.231Z,100696.98
2018-11-02T07:12:48.948Z,100698.56
2018-11-02T07:15:19.719Z,100692.30
2018-11-02T07:17:50.399Z,100692.44
2018-11-02T07:20:21.113Z,100700.09
2018-11-02T07:22:51.791Z,100711.20
2018-11-02T07:25:22.626Z,100707.86
2018-11-02T07:27:53.787Z,100715.30
2018-11-02T07:30:24.531Z,100719.95
2018-11-02T07:32:55.399Z,100717.84
2018-11-02T07:35:26.240Z,100725.25
2018-11-02T07:37:57.125Z,100722.73
2018-11-02T07:40:27.821Z,100732.90
2018-11-02T07:42:58.543Z,100730.92
2018-11-02T07:45:29.235Z,100739.89
2018-11-02T07:47:59.876Z,100741.29
2018-11-02T07:50:30.608Z,100742.46
2018-11-02T07:53:01.392Z,100741.70
2018-11-02T07:55:32.221Z,100745.77
2018-11-02T07:58:02.983Z,100739.88
2018-11-02T08:00:33.699Z,100750.03
2018-11-02T08:03:04.527Z,100760.33
2018-11-02T08:05:35.351Z,100760.34
2018-11-02T08:08:06.213Z,100754.88
2018-11-02T08:10:37.091Z,100757.88
2018-11-02T08:13:07.897Z,100774.29
2018-11-02T08:15:38.829Z,100773.16
2018-11-02T08:18:09.603Z,100781.34
2018-11-02T08:20:40.284Z,100772.09
2018-11-02T08:23:11.032Z,100788.22
2018-11-02T08:25:41.777Z,100777.71
2018-11-02T08:28:12.646Z,100784.27
2018-11-02T08:30:43.288Z,100794.30
2018-11-02T08:33:14.008Z,100793.84
2018-11-02T08:35:44.720Z,100793.34
2018-11-02T08:38:15.583Z,100793.13
2018-11-02T08:40:46.228Z,100801.43
2018-11-02T08:43:16.967Z,100806.44
2018-11-02T08:45:47.767Z,100801.20
2018-11-02T08:48:18.474Z,100805.09
2018-11-02T08:50:49.301Z,100813.04
2018-11-02T08:53:20.694Z,100814.70
2018-11-02T08:55:51.370Z,100810.30
2018-11-02T08:58:22.238Z,100813.58
2018-11-02T09:00:52.837Z,100810.11
2018-11-02T09:03:23.558Z,100819.52
2018-11-02T09:05:54.328Z,100816.57
2018-11-02T09:08:24.995Z,100807.73
2018-11-02T09:10:55.763Z,100817.88
2018-11-02T09:13:26.455Z,100814.36
2018-11-02T09:15:57.162Z,100829.48
2018-11-02T09:18:27.969Z,100830.36
2018-11-02T09:20:58.590Z,100833.70
2018-11-02T09:23:29.329Z,100843.30
2018-11-02T09:26:00.133Z,100848.27
2018-11-02T09:28:30.813Z,100850.27
2018-11-02T09:31:01.476Z,100851.58
2018-11-02T09:33:32.315Z,100865.11
2018-11-02T09:36:03.051Z,100862.98
2018-11-02T09:38:33.775Z,100874.27
2018-11-02T09:41:04.547Z,100875.24
2018-11-02T09:43:35.294Z,100877.33
2018-11-02T09:46:06.275Z,100882.00
2018-11-02T09:48:36.925Z,100883.56
2018-11-02T09:51:07.676Z,100883.70
2018-11-02T09:53:38.311Z,100897.99
2018-11-02T09:56:08.995Z,100901.41
2018-11-02T09:58:39.735Z,100906.59
2018-11-02T10:01:10.420Z,100914.06
2018-11-02T10:03:41.316Z,100919.05
2018-11-02T10:06:12.034Z,100919.00
2018-11-02T10:08:42.768Z,100923.12
2018-11-02T10:11:13.574Z,100927.72
2018-11-02T10:13:44.296Z,100923.77
2018-11-02T10:16:15.022Z,100919.05
2018-11-02T10:18:45.743Z,100925.39
2018-11-02T10:21:16.523Z,100932.04
2018-11-02T10:23:47.220Z,100928.22
2018-11-02T10:26:18.024Z,100929.06
2018-11-02T10:28:48.778Z,100938.36
2018-11-02T10:31:19.571Z,100947.20
2018-11-02T10:33:50.442Z,100938.25
2018-11-02T10:36:21.976Z,100944.73
2018-11-02T10:38:53.240Z,100947.16
2018-11-02T10:41:38.376Z,100941.45
2018-11-02T10:44:09.229Z,100938.89
2018-11-02T10:46:40.079Z,100947.50
2018-11-02T10:49:10.819Z,100944.64
2018-11-02T10:51:41.539Z,100953.28
2018-11-02T10:54:12.554Z,100962.81
2018-11-02T10:56:43.302Z,100966.50
2018-11-02T10:59:13.991Z,100966.56
2018-11-02T11:01:50.746Z,100963.65
2018-11-02T11:04:21.503Z,100965.97
2018-11-02T11:06:52.208Z,100964.80
2018-11-02T11:09:22.905Z,100985.44
2018-11-02T11:11:53.661Z,100981.09
2018-11-02T11:14:31.383Z,100980.64
2018-11-02T11:17:02.039Z,100992.50
2018-11-02T11:19:32.743Z,100989.14
2018-11-02T11:22:03.399Z,100991.58
2018-11-02T11:24:34.200Z,100995.56
2018-11-02T11:27:05.093Z,100995.41
2018-11-02T11:29:35.985Z,100996.41
2018-11-02T11:32:07.460Z,100993.53
2018-11-02T11:34:38.424Z,100994.44
2018-11-02T11:37:09.234Z,100998.38
2018-11-02T11:39:40.097Z,100992.59
2018-11-02T11:42:10.907Z,100997.53
2018-11-02T11:44:41.710Z,101003.82
2018-11-02T11:47:12.415Z,101005.16
2018-11-02T11:49:43.196Z,101006.89
2018-11-02T11:52:14.007Z,101007.08
2018-11-02T11:54:44.753Z,101002.84
2018-11-02T11:57:15.543Z,100996.67
2018-11-02T11:59:46.301Z,101001.44
2018-11-02T12:02:17.112Z,101004.55
2018-11-02T12:04:47.889Z,101010.41
2018-11-02T12:07:18.611Z,101011.66
2018-11-02T12:09:49.319Z,101013.64
2018-11-02T12:12:20.089Z,101016.97
2018-11-02T12:14:50.884Z,101008.19
2018-11-02T12:17:21.655Z,101009.70
2018-11-02T12:19:52.397Z,101023.77
2018-11-02T12:22:23.301Z,101032.73
2018-11-02T12:24:54.032Z,101036.21
2018-11-02T12:27:24.809Z,101034.98
2018-11-02T12:29:55.543Z,101042.53
2018-11-02T12:32:26.355Z,101037.69
2018-11-02T12:34:57.073Z,101042.91
2018-11-02T12:37:27.824Z,101046.66
2018-11-02T12:39:58.676Z,101046.94
2018-11-02T12:42:29.327Z,101046.61
2018-11-02T12:45:00.068Z,101044.05
2018-11-02T12:47:30.751Z,101048.14
2018-11-02T12:50:01.448Z,101042.91
2018-11-02T12:52:32.287Z,101055.80
2018-11-02T12:55:03.012Z,101058.03
2018-11-02T12:57:33.756Z,101050.91
2018-11-02T13:00:04.510Z,101054.13
2018-11-02T13:02:35.420Z,101052.50
2018-11-02T13:05:06.786Z,101057.05
2018-11-02T13:07:37.910Z,101056.70
2018-11-02T13:10:10.827Z,101055.53
2018-11-02T13:12:41.597Z,101064.62
2018-11-02T13:15:17.236Z,101061.08
2018-11-02T13:17:48.780Z,101061.31
2018-11-02T13:20:19.605Z,101054.33
2018-11-02T13:22:51.211Z,101062.00
2018-11-02T13:25:22.772Z,101065.50
2018-11-02T13:27:53.553Z,101063.60
2018-11-02T13:30:24.456Z,101071.06
2018-11-02T13:32:55.014Z,101079.09
2018-11-02T13:35:25.776Z,101072.73
2018-11-02T13:37:56.568Z,101077.89
2018-11-02T13:40:27.296Z,101079.36
2018-11-02T13:42:58.077Z,101069.03
2018-11-02T13:45:28.786Z,101075.18
2018-11-02T13:47:59.597Z,101082.08
2018-11-02T13:50:30.535Z,101093.87
2018-11-02T13:53:02.113Z,101101.74
2018-11-02T13:55:32.973Z,101100.69
2018-11-02T13:58:03.752Z,101105.27
2018-11-02T14:00:34.448Z,101105.20
2018-11-02T14:03:05.453Z,101113.61
2018-11-02T14:05:36.298Z,101110.00
2018-11-02T14:08:07.048Z,101121.92
2018-11-02T14:10:37.741Z,101127.02
2018-11-02T14:13:08.581Z,101136.82
2018-11-02T14:15:39.391Z,101133.75
2018-11-02T14:18:10.232Z,101137.67
2018-11-02T14:20:41.000Z,101143.32
2018-11-02T14:23:11.793Z,101152.73
2018-11-02T14:25:42.547Z,101152.91
2018-11-02T14:28:13.339Z,101155.41
2018-11-02T14:30:44.808Z,101164.00
2018-11-02T14:33:15.540Z,101163.98
2018-11-02T14:35:46.351Z,101173.97
2018-11-02T14:38:17.199Z,101181.77
2018-11-02T14:40:47.997Z,101179.13
2018-11-02T14:43:18.675Z,101181.06
2018-11-02T14:45:49.369Z,101193.97
2018-11-02T14:48:20.204Z,101204.11
2018-11-02T14:50:50.966Z,101203.31
2018-11-02T14:53:21.696Z,101203.38
2018-11-02T14:55:52.378Z,101210.11
2018-11-02T14:58:23.113Z,101207.36
2018-11-02T15:00:53.992Z,101211.77
2018-11-02T15:03:24.721Z,101212.76
2018-11-02T15:05:55.553Z,101213.49
2018-11-02T15:08:26.322Z,101217.83
2018-11-02T15:10:57.143Z,101225.47
2018-11-02T15:13:27.914Z,101231.44
2018-11-02T15:15:58.628Z,101238.96
2018-11-02T15:18:29.312Z,101243.70
2018-11-02T15:21:00.071Z,101242.73
2018-11-02T15:23:30.769Z,101247.03
2018-11-02T15:26:01.476Z,101256.39
2018-11-02T15:28:32.255Z,101256.32
2018-11-02T15:31:02.981Z,101249.69
2018-11-02T15:33:33.685Z,101255.98
2018-11-02T15:36:04.434Z,101245.11
2018-11-02T15:38:35.221Z,101247.18
2018-11-02T15:41:06.223Z,101251.08
2018-11-02T15:43:37.068Z,101249.91
2018-11-02T15:46:07.813Z,101255.54
2018-11-02T15:48:38.600Z,101265.28
2018-11-02T15:51:09.312Z,101259.56
2018-11-02T15:53:40.048Z,101257.48
2018-11-02T15:56:10.793Z,101261.78
2018-11-02T15:58:41.560Z,101261.95
2018-11-02T16:01:12.265Z,101268.73
2018-11-02T16:03:43.007Z,101269.56
2018-11-02T16:06:13.694Z,101276.15
2018-11-02T16:08:44.575Z,101275.48
2018-11-02T16:11:15.260Z,101274.09
2018-11-02T16:13:45.953Z,101272.48
2018-11-02T16:16:16.675Z,101276.86
2018-11-02T16:18:47.375Z,101279.20
2018-11-02T16:21:18.121Z,101275.38
2018-11-02T16:23:48.905Z,101281.27
2018-11-02T16:26:19.694Z,101283.09
2018-11-02T16:28:50.371Z,101281.97
2018-11-02T16:31:21.077Z,101283.48
2018-11-02T16:33:51.866Z,101288.93
2018-11-02T16:36:22.558Z,101290.84
2018-11-02T16:38:53.366Z,101289.17
2018-11-02T16:41:24.046Z,101305.56
2018-11-02T16:43:54.832Z,101310.52
2018-11-02T16:46:25.476Z,101315.88
2018-11-02T16:48:56.181Z,101314.67
2018-11-02T16:51:26.903Z,101323.52
2018-11-02T16:53:57.567Z,101328.50
2018-11-02T16:56:28.293Z,101334.31
2018-11-02T16:58:58.978Z,101342.80
2018-11-02T17:01:29.727Z,101343.00
2018-11-02T17:04:00.488Z,101345.31
2018-11-02T17:06:31.134Z,101352.44
2018-11-02T17:09:01.862Z,101358.72
2018-11-02T17:11:32.503Z,101361.93
2018-11-02T17:14:03.224Z,101370.36
2018-11-02T17:16:33.946Z,101375.76
2018-11-02T17:19:04.662Z,101379.85
2018-11-02T17:21:35.368Z,101387.44
2018-11-02T17:24:06.189Z,101394.19
2018-11-02T17:26:36.942Z,101401.34
2018-11-02T17:29:07.803Z,101405.02
2018-11-02T17:31:38.499Z,101411.23
2018-11-02T17:34:09.181Z,101409.57
2018-11-02T17:36:39.988Z,101414.95
2018-11-02T17:39:11.640Z,101417.74
2018-11-02T17:41:42.448Z,101411.73
2018-11-02T17:44:13.208Z,101411.86
2018-11-02T17:46:43.904Z,101418.91
2018-11-02T17:49:14.617Z,101423.32
2018-11-02T17:51:45.349Z,101428.61
2018-11-02T17:54:16.064Z,101433.50
2018-11-02T17:56:46.731Z,101438.39
2018-11-02T17:59:17.401Z,101440.25
2018-11-02T18:01:48.094Z,101442.08
2018-11-02T18:04:18.860Z,101448.74
2018-11-02T18:06:49.575Z,101448.45
2018-11-02T18:09:20.319Z,101452.02
2018-11-02T18:11:51.102Z,101462.58
2018-11-02T18:14:21.759Z,101456.52
2018-11-02T18:16:52.483Z,101463.98
2018-11-02T18:19:23.203Z,101466.64
2018-11-02T18:21:54.125Z,101472.83
2018-11-02T18:24:25.035Z,101470.67
2018-11-02T18:26:55.674Z,101476.86
2018-11-02T18:29:26.392Z,101487.82
2018-11-02T18:31:57.112Z,101484.32
2018-11-02T18:34:27.796Z,101486.95
2018-11-02T18:36:58.459Z,101486.97
2018-11-02T18:39:29.116Z,101490.97
2018-11-02T18:41:59.862Z,101495.80
2018-11-02T18:44:30.500Z,101502.42
2018-11-02T18:47:01.211Z,101499.88
2018-11-02T18:49:31.818Z,101499.94
2018-11-02T18:52:02.510Z,101503.79
2018-11-02T18:54:33.212Z,101509.52
2018-11-02T18:59:42.795Z,101516.56
2018-11-02T19:02:13.493Z,101527.13
2018-11-02T19:04:44.186Z,101532.02
2018-11-02T19:07:14.870Z,101539.06
2018-11-02T19:09:45.709Z,101544.70
2018-11-02T19:12:16.364Z,101546.43
2018-11-02T19:14:47.066Z,101546.45
2018-11-02T19:17:17.798Z,101557.43
2018-11-02T19:19:48.683Z,101557.91
2018-11-02T19:22:19.321Z,101565.79
2018-11-02T19:24:50.071Z,101559.23
2018-11-02T19:27:20.944Z,101567.58
2018-11-02T19:29:51.668Z,101571.61
2018-11-02T19:32:22.521Z,101566.87
2018-11-02T19:34:53.403Z,101567.75
2018-11-02T19:37:23.841Z,101566.87
2018-11-02T19:39:54.477Z,101566.89
2018-11-02T19:42:25.296Z,101569.55
2018-11-02T19:44:56.010Z,101568.23
2018-11-02T19:47:32.037Z,101570.00
2018-11-02T19:50:02.713Z,101573.56
2018-11-02T19:52:33.803Z,101574.86
2018-11-02T19:55:04.833Z,101567.04
2018-11-02T19:57:35.541Z,101574.05
2018-11-02T20:00:08.472Z,101575.81
2018-11-02T20:02:39.827Z,101580.67
2018-11-02T20:05:13.337Z,101579.77
2018-11-02T20:07:44.378Z,101585.48
2018-11-02T20:10:15.978Z,101585.85
2018-11-02T20:12:47.298Z,101583.26
2018-11-02T20:15:18.652Z,101591.11
2018-11-02T20:17:49.455Z,101588.53
2018-11-02T20:20:20.101Z,101594.66
2018-11-02T20:22:50.808Z,101599.90
2018-11-02T20:25:21.539Z,101602.14
2018-11-02T20:27:52.337Z,101605.21
2018-11-02T20:30:23.074Z,101601.73
2018-11-02T20:32:53.812Z,101602.16
2018-11-02T20:35:24.560Z,101603.93
2018-11-02T20:37:55.312Z,101610.92
2018-11-02T20:40:26.019Z,101604.41
2018-11-02T20:42:56.783Z,101609.23
2018-11-02T20:45:27.475Z,101607.97
2018-11-02T20:47:58.191Z,101605.80
2018-11-02T20:50:29.017Z,101592.29
2018-11-02T20:52:59.788Z,101593.15
2018-11-02T20:55:30.490Z,101596.62
2018-11-02T20:58:01.216Z,101602.33
2018-11-02T21:00:32.000Z,101614.11
2018-11-02T21:03:02.776Z,101616.77
2018-11-02T21:05:33.561Z,101619.39
2018-11-02T21:08:04.779Z,101619.41
2018-11-02T21:10:35.312Z,101622.03
2018-11-02T21:13:06.432Z,101626.41
2018-11-02T21:15:37.165Z,101625.08
2018-11-02T21:18:07.820Z,101639.05
2018-11-02T21:20:38.617Z,101636.88
2018-11-02T21:23:09.355Z,101641.70
2018-11-02T21:25:40.014Z,101640.37
2018-11-02T21:28:10.811Z,101633.41
2018-11-02T21:30:41.550Z,101628.61
2018-11-02T21:33:12.346Z,101632.52
2018-11-02T21:35:43.155Z,101636.03
2018-11-02T21:38:14.063Z,101644.32
2018-11-02T21:40:44.749Z,101641.26
2018-11-02T21:43:15.630Z,101638.64
2018-11-02T21:45:46.356Z,101642.12
2018-11-02T21:48:17.108Z,101643.00
2018-11-02T21:50:47.886Z,101646.09
2018-11-02T21:53:18.603Z,101646.52
2018-11-02T21:55:49.508Z,101642.16
2018-11-02T21:58:20.333Z,101640.42
2018-11-02T22:00:51.090Z,101637.83
2018-11-02T22:03:21.743Z,101643.05
2018-11-02T22:05:52.490Z,101641.30
2018-11-02T22:08:23.286Z,101652.21
2018-11-02T22:10:53.922Z,101653.95
2018-11-02T22:13:24.686Z,101654.38
2018-11-02T22:15:55.351Z,101649.16
2018-11-02T22:18:26.074Z,101656.55
2018-11-02T22:20:56.770Z,101659.59
2018-11-02T22:23:27.515Z,101656.12
2018-11-02T22:25:58.173Z,101659.61
2018-11-02T22:28:28.836Z,101649.61
2018-11-02T22:30:59.564Z,101654.86
2018-11-02T22:33:30.251Z,101653.55
2018-11-02T22:36:01.070Z,101650.92
2018-11-02T22:38:31.715Z,101654.42
2018-11-02T22:41:02.454Z,101651.80
2018-11-02T22:43:33.101Z,101661.39
2018-11-02T22:46:03.807Z,101661.84
2018-11-02T22:48:34.711Z,101656.17
2018-11-02T22:51:05.588Z,101669.70
2018-11-02T22:53:36.297Z,101664.91
2018-11-02T22:56:07.191Z,101662.73
2018-11-02T22:58:37.933Z,101658.39
2018-11-02T23:01:13.992Z,101659.70
2018-11-02T23:03:44.701Z,101660.56
2018-11-02T23:06:15.465Z,101668.86
2018-11-02T23:08:46.173Z,101676.70
2018-11-02T23:11:16.852Z,101676.69
2018-11-02T23:14:02.319Z,101675.81
2018-11-02T23:16:33.011Z,101680.17
2018-11-02T23:19:03.742Z,101683.65
2018-11-02T23:21:34.466Z,101684.97
2018-11-02T23:24:05.805Z,101688.45
2018-11-02T23:26:38.145Z,101689.74
2018-11-02T23:29:09.633Z,101691.06
2018-11-02T23:31:40.345Z,101692.81
2018-11-02T23:34:11.077Z,101687.14
2018-11-02T23:36:41.751Z,101679.74
2018-11-02T23:39:12.421Z,101685.84
2018-11-02T23:41:43.115Z,101682.38
2018-11-02T23:44:13.743Z,101683.66
2018-11-02T23:46:44.407Z,101681.06
2018-11-02T23:49:15.203Z,101671.89
2018-11-02T23:51:45.841Z,101672.77
2018-11-02T23:54:16.520Z,101681.05
2018-11-02T23:56:47.176Z,101672.77
2018-11-02T23:59:17.835Z,101678.44
